createdAt,value
2018-07-21T00:00:23.117Z,985.03
2018-07-21T00:01:23.280Z,985.06
2018-07-21T00:02:23.439Z,985.04
2018-07-21T00:03:23.554Z,985.04
2018-07-21T00:04:23.716Z,985.03
2018-07-21T00:05:24.539Z,985.02
2018-07-21T00:07:55.825Z,985.05
2018-07-21T00:08:55.972Z,985.04
2018-07-21T00:09:56.105Z,985.06
2018-07-21T00:10:56.252Z,985.11
2018-07-21T00:11:56.381Z,985.10
2018-07-21T00:12:56.528Z,985.10
2018-07-21T00:13:56.697Z,985.13
2018-07-21T00:14:56.822Z,985.14
2018-07-21T00:15:56.965Z,985.14
2018-07-21T00:16:57.115Z,985.14
2018-07-21T00:17:57.250Z,985.11
2018-07-21T00:18:57.394Z,985.10
2018-07-21T00:19:57.554Z,985.08
2018-07-21T00:20:57.695Z,985.08
2018-07-21T00:21:57.847Z,985.02
2018-07-21T00:22:58.011Z,985.05
2018-07-21T00:23:58.144Z,985.08
2018-07-21T00:24:58.287Z,985.04
2018-07-21T00:25:58.454Z,985.03
2018-07-21T00:26:58.584Z,985.05
2018-07-21T00:27:58.724Z,985.02
2018-07-21T00:28:58.881Z,985.01
2018-07-21T00:29:59.011Z,984.99
2018-07-21T00:30:59.151Z,985.01
2018-07-21T00:31:59.313Z,984.99
2018-07-21T00:32:59.442Z,985.01
2018-07-21T00:33:59.604Z,985.00
2018-07-21T00:34:59.760Z,985.00
2018-07-21T00:35:59.905Z,984.98
2018-07-21T00:37:00.066Z,985.01
2018-07-21T00:38:00.235Z,984.99
2018-07-21T00:39:00.372Z,984.99
2018-07-21T00:40:00.509Z,984.99
2018-07-21T00:41:00.669Z,984.93
2018-07-21T00:42:00.803Z,985.01
2018-07-21T00:43:00.939Z,984.99
2018-07-21T00:44:01.110Z,984.97
2018-07-21T00:45:01.246Z,984.96
2018-07-21T00:46:01.402Z,984.94
2018-07-21T00:47:01.564Z,984.97
2018-07-21T00:48:01.698Z,984.96
2018-07-21T00:49:01.847Z,984.95
2018-07-21T00:50:01.988Z,984.94
2018-07-21T00:51:02.184Z,984.93
2018-07-21T00:52:02.322Z,984.95
2018-07-21T00:53:02.490Z,984.94
2018-07-21T00:54:02.620Z,984.92
2018-07-21T00:55:02.767Z,984.93
2018-07-21T00:56:02.925Z,984.92
2018-07-21T00:57:03.062Z,984.94
2018-07-21T00:58:03.198Z,984.92
2018-07-21T00:59:03.362Z,984.92
2018-07-21T01:00:03.496Z,984.92
2018-07-21T01:01:03.633Z,984.94
2018-07-21T01:02:03.778Z,984.96
2018-07-21T01:03:03.918Z,984.97
2018-07-21T01:04:04.059Z,984.98
2018-07-21T01:05:04.200Z,985.00
2018-07-21T01:06:04.341Z,984.96
2018-07-21T01:07:04.481Z,984.94
2018-07-21T01:08:04.623Z,984.97
2018-07-21T01:09:04.760Z,984.91
2018-07-21T01:10:04.904Z,984.95
2018-07-21T01:11:05.046Z,984.94
2018-07-21T01:12:05.178Z,984.95
2018-07-21T01:13:05.320Z,984.92
2018-07-21T01:14:05.470Z,984.93
2018-07-21T01:15:05.611Z,984.94
2018-07-21T01:16:05.754Z,984.89
2018-07-21T01:17:05.890Z,984.87
2018-07-21T01:18:06.037Z,984.86
2018-07-21T01:19:06.193Z,984.85
2018-07-21T01:20:06.348Z,984.89
2018-07-21T01:21:06.483Z,984.89
2018-07-21T01:22:06.626Z,984.89
2018-07-21T01:23:06.769Z,984.90
2018-07-21T01:24:06.916Z,984.91
2018-07-21T01:25:07.054Z,984.90
2018-07-21T01:26:07.193Z,984.89
2018-07-21T01:27:07.331Z,984.91
2018-07-21T01:28:08.015Z,984.88
2018-07-21T01:29:07.605Z,984.90
2018-07-21T01:30:07.742Z,984.87
2018-07-21T01:31:07.879Z,984.87
2018-07-21T01:32:08.024Z,984.93
2018-07-21T01:33:08.162Z,984.89
2018-07-21T01:34:08.301Z,984.87
2018-07-21T01:35:08.440Z,984.89
2018-07-21T01:36:08.586Z,984.87
2018-07-21T01:37:08.727Z,984.90
2018-07-21T01:38:08.868Z,984.89
2018-07-21T01:39:09.015Z,984.86
2018-07-21T01:40:09.166Z,984.83
2018-07-21T01:41:09.312Z,984.86
2018-07-21T01:42:09.458Z,984.86
2018-07-21T01:43:09.595Z,984.87
2018-07-21T01:44:09.736Z,984.85
2018-07-21T01:45:09.877Z,984.83
2018-07-21T01:46:10.018Z,984.83
2018-07-21T01:47:10.164Z,984.83
2018-07-21T01:48:10.304Z,984.81
2018-07-21T01:49:10.446Z,984.83
2018-07-21T01:50:10.589Z,984.82
2018-07-21T01:51:10.735Z,984.80
2018-07-21T01:52:10.871Z,984.81
2018-07-21T01:53:11.038Z,984.80
2018-07-21T01:54:11.170Z,984.80
2018-07-21T01:55:11.314Z,984.75
2018-07-21T01:56:11.462Z,984.75
2018-07-21T01:57:11.596Z,984.76
2018-07-21T01:58:11.736Z,984.76
2018-07-21T01:59:11.897Z,984.73
2018-07-21T02:00:12.038Z,984.75
2018-07-21T02:01:12.179Z,984.74
2018-07-21T02:02:12.364Z,984.72
2018-07-21T02:03:12.472Z,984.73
2018-07-21T02:04:12.615Z,984.70
2018-07-21T02:05:12.755Z,984.70
2018-07-21T02:06:12.900Z,984.68
2018-07-21T02:07:13.036Z,984.71
2018-07-21T02:08:13.186Z,984.65
2018-07-21T02:09:13.316Z,984.66
2018-07-21T02:10:13.457Z,984.65
2018-07-21T02:11:13.596Z,984.61
2018-07-21T02:12:13.732Z,984.59
2018-07-21T02:13:13.868Z,984.61
2018-07-21T02:14:14.026Z,984.59
2018-07-21T02:15:14.210Z,984.57
2018-07-21T02:16:14.354Z,984.57
2018-07-21T02:17:14.514Z,984.56
2018-07-21T02:18:14.651Z,984.55
2018-07-21T02:19:14.796Z,984.59
2018-07-21T02:20:14.950Z,984.57
2018-07-21T02:21:15.097Z,984.59
2018-07-21T02:22:15.233Z,984.57
2018-07-21T02:23:15.392Z,984.60
2018-07-21T02:24:15.523Z,984.56
2018-07-21T02:25:15.665Z,984.59
2018-07-21T02:26:15.819Z,984.57
2018-07-21T02:27:15.954Z,984.59
2018-07-21T02:28:16.092Z,984.55
2018-07-21T02:29:16.254Z,984.52
2018-07-21T02:30:16.388Z,984.51
2018-07-21T02:31:16.531Z,984.50
2018-07-21T02:32:16.708Z,984.52
2018-07-21T02:33:16.833Z,984.52
2018-07-21T02:34:16.974Z,984.49
2018-07-21T02:35:17.142Z,984.49
2018-07-21T02:36:17.271Z,984.49
2018-07-21T02:37:17.425Z,984.45
2018-07-21T02:38:17.583Z,984.46
2018-07-21T02:39:17.718Z,984.48
2018-07-21T02:40:17.855Z,984.47
2018-07-21T02:41:18.008Z,984.43
2018-07-21T02:42:18.148Z,984.44
2018-07-21T02:43:18.290Z,984.45
2018-07-21T02:44:18.498Z,984.44
2018-07-21T02:45:18.578Z,984.42
2018-07-21T02:46:18.714Z,984.43
2018-07-21T02:47:18.854Z,984.41
2018-07-21T02:48:18.997Z,984.44
2018-07-21T02:49:19.166Z,984.43
2018-07-21T02:50:19.304Z,984.44
2018-07-21T02:51:19.444Z,984.42
2018-07-21T02:52:19.590Z,984.41
2018-07-21T02:53:19.720Z,984.38
2018-07-21T02:54:19.918Z,984.37
2018-07-21T02:55:20.060Z,984.39
2018-07-21T02:56:20.203Z,984.43
2018-07-21T02:57:20.348Z,984.41
2018-07-21T02:58:20.667Z,984.35
2018-07-21T02:59:20.622Z,984.39
2018-07-21T03:00:20.765Z,984.36
2018-07-21T03:01:20.912Z,984.36
2018-07-21T03:02:21.053Z,984.35
2018-07-21T03:03:21.190Z,984.38
2018-07-21T03:04:21.329Z,984.32
2018-07-21T03:05:21.472Z,984.33
2018-07-21T03:06:21.671Z,984.34
2018-07-21T03:07:21.810Z,984.34
2018-07-21T03:08:21.957Z,984.31
2018-07-21T03:09:22.109Z,984.34
2018-07-21T03:10:22.247Z,984.33
2018-07-21T03:11:22.380Z,984.35
2018-07-21T03:12:22.521Z,984.34
2018-07-21T03:13:22.669Z,984.35
2018-07-21T03:14:22.806Z,984.32
2018-07-21T03:15:22.962Z,984.34
2018-07-21T03:16:23.095Z,984.32
2018-07-21T03:17:23.238Z,984.32
2018-07-21T03:18:23.383Z,984.32
2018-07-21T03:19:23.526Z,984.34
2018-07-21T03:20:23.665Z,984.32
2018-07-21T03:21:23.863Z,984.35
2018-07-21T03:22:24.006Z,984.35
2018-07-21T03:23:24.196Z,984.32
2018-07-21T03:24:24.275Z,984.34
2018-07-21T03:25:24.431Z,984.32
2018-07-21T03:26:24.565Z,984.30
2018-07-21T03:27:24.711Z,984.28
2018-07-21T03:28:24.849Z,984.28
2018-07-21T03:29:24.991Z,984.26
2018-07-21T03:30:25.138Z,984.31
2018-07-21T03:31:25.285Z,984.28
2018-07-21T03:32:25.421Z,984.26
2018-07-21T03:33:25.587Z,984.25
2018-07-21T03:34:25.746Z,984.24
2018-07-21T03:35:25.883Z,984.22
2018-07-21T03:36:26.031Z,984.22
2018-07-21T03:37:26.167Z,984.23
2018-07-21T03:38:26.314Z,984.20
2018-07-21T03:39:26.455Z,984.19
2018-07-21T03:40:26.640Z,984.21
2018-07-21T03:41:26.745Z,984.22
2018-07-21T03:42:26.885Z,984.22
2018-07-21T03:43:27.026Z,984.24
2018-07-21T03:44:27.178Z,984.21
2018-07-21T03:45:27.316Z,984.20
2018-07-21T03:46:27.451Z,984.19
2018-07-21T03:47:27.592Z,984.21
2018-07-21T03:48:27.736Z,984.22
2018-07-21T03:49:27.878Z,984.24
2018-07-21T03:50:28.019Z,984.23
2018-07-21T03:51:28.157Z,984.25
2018-07-21T03:52:28.300Z,984.24
2018-07-21T03:53:28.437Z,984.25
2018-07-21T03:54:28.583Z,984.26
2018-07-21T03:55:28.715Z,984.22
2018-07-21T03:56:28.871Z,984.23
2018-07-21T03:57:29.003Z,984.19
2018-07-21T03:58:29.144Z,984.22
2018-07-21T03:59:29.282Z,984.22
2018-07-21T04:00:29.464Z,984.25
2018-07-21T04:01:29.565Z,984.28
2018-07-21T04:02:29.703Z,984.29
2018-07-21T04:03:29.839Z,984.31
2018-07-21T04:04:29.979Z,984.31
2018-07-21T04:05:30.138Z,984.30
2018-07-21T04:06:30.269Z,984.30
2018-07-21T04:07:30.405Z,984.31
2018-07-21T04:08:30.546Z,984.31
2018-07-21T04:09:30.739Z,984.27
2018-07-21T04:10:30.875Z,984.28
2018-07-21T04:11:31.045Z,984.32
2018-07-21T04:12:31.269Z,984.32
2018-07-21T04:13:31.283Z,984.30
2018-07-21T04:14:31.421Z,984.32
2018-07-21T04:15:31.580Z,984.29
2018-07-21T04:16:31.760Z,984.29
2018-07-21T04:17:31.877Z,984.29
2018-07-21T04:18:32.012Z,984.28
2018-07-21T04:19:32.151Z,984.25
2018-07-21T04:20:32.316Z,984.28
2018-07-21T04:21:32.453Z,984.27
2018-07-21T04:22:32.592Z,984.28
2018-07-21T04:23:32.759Z,984.27
2018-07-21T04:24:32.900Z,984.26
2018-07-21T04:25:33.042Z,984.24
2018-07-21T04:26:33.195Z,984.25
2018-07-21T04:27:33.329Z,984.24
2018-07-21T04:28:33.471Z,984.23
2018-07-21T04:29:33.632Z,984.22
2018-07-21T04:30:33.758Z,984.25
2018-07-21T04:31:33.902Z,984.26
2018-07-21T04:32:34.058Z,984.29
2018-07-21T04:33:34.274Z,984.24
2018-07-21T04:34:34.297Z,984.24
2018-07-21T04:35:34.449Z,984.25
2018-07-21T04:36:34.593Z,984.24
2018-07-21T04:37:34.732Z,984.25
2018-07-21T04:38:34.891Z,984.26
2018-07-21T04:39:35.022Z,984.31
2018-07-21T04:40:35.159Z,984.30
2018-07-21T04:41:35.324Z,984.31
2018-07-21T04:42:35.562Z,984.31
2018-07-21T04:43:35.576Z,984.30
2018-07-21T04:44:35.739Z,984.34
2018-07-21T04:45:35.886Z,984.36
2018-07-21T04:46:36.029Z,984.32
2018-07-21T04:47:36.247Z,984.37
2018-07-21T04:48:36.252Z,984.33
2018-07-21T04:49:36.392Z,984.34
2018-07-21T04:50:36.547Z,984.37
2018-07-21T04:51:36.684Z,984.38
2018-07-21T04:52:36.821Z,984.39
2018-07-21T04:53:36.964Z,984.40
2018-07-21T04:54:37.186Z,984.43
2018-07-21T04:55:37.195Z,984.43
2018-07-21T04:56:37.339Z,984.43
2018-07-21T04:57:37.472Z,984.44
2018-07-21T04:58:37.619Z,984.42
2018-07-21T04:59:37.772Z,984.43
2018-07-21T05:00:37.918Z,984.43
2018-07-21T05:01:38.051Z,984.46
2018-07-21T05:02:38.200Z,984.48
2018-07-21T05:03:38.344Z,984.50
2018-07-21T05:04:38.484Z,984.51
2018-07-21T05:05:38.631Z,984.52
2018-07-21T05:06:38.767Z,984.54
2018-07-21T05:07:38.905Z,984.51
2018-07-21T05:08:39.051Z,984.56
2018-07-21T05:09:39.192Z,984.55
2018-07-21T05:10:39.334Z,984.54
2018-07-21T05:11:39.475Z,984.57
2018-07-21T05:12:39.618Z,984.57
2018-07-21T05:13:39.759Z,984.59
2018-07-21T05:14:39.902Z,984.58
2018-07-21T05:15:40.042Z,984.63
2018-07-21T05:16:40.188Z,984.62
2018-07-21T05:17:40.333Z,984.60
2018-07-21T05:18:40.482Z,984.59
2018-07-21T05:19:40.616Z,984.60
2018-07-21T05:20:40.762Z,984.61
2018-07-21T05:21:40.901Z,984.64
2018-07-21T05:22:41.037Z,984.61
2018-07-21T05:23:41.177Z,984.63
2018-07-21T05:24:41.321Z,984.62
2018-07-21T05:25:41.465Z,984.59
2018-07-21T05:26:41.606Z,984.59
2018-07-21T05:27:41.746Z,984.55
2018-07-21T05:28:41.897Z,984.54
2018-07-21T05:29:42.035Z,984.54
2018-07-21T05:30:42.177Z,984.55
2018-07-21T05:31:42.324Z,984.54
2018-07-21T05:32:42.467Z,984.58
2018-07-21T05:33:42.605Z,984.54
2018-07-21T05:34:42.745Z,984.53
2018-07-21T05:35:42.882Z,984.53
2018-07-21T05:36:43.032Z,984.51
2018-07-21T05:37:43.165Z,984.54
2018-07-21T05:38:43.306Z,984.53
2018-07-21T05:39:43.442Z,984.53
2018-07-21T05:40:43.577Z,984.55
2018-07-21T05:41:43.717Z,984.54
2018-07-21T05:42:43.854Z,984.61
2018-07-21T05:43:44.004Z,984.60
2018-07-21T05:44:44.146Z,984.62
2018-07-21T05:45:44.287Z,984.62
2018-07-21T05:46:44.426Z,984.61
2018-07-21T05:47:44.567Z,984.62
2018-07-21T05:48:44.707Z,984.61
2018-07-21T05:49:44.851Z,984.62
2018-07-21T05:50:44.990Z,984.60
2018-07-21T05:51:45.131Z,984.60
2018-07-21T05:52:45.278Z,984.62
2018-07-21T05:53:45.410Z,984.62
2018-07-21T05:54:45.556Z,984.62
2018-07-21T05:55:45.697Z,984.65
2018-07-21T05:56:45.845Z,984.67
2018-07-21T05:57:45.991Z,984.64
2018-07-21T05:58:46.156Z,984.66
2018-07-21T05:59:46.286Z,984.63
2018-07-21T06:00:46.432Z,984.68
2018-07-21T06:01:46.594Z,984.65
2018-07-21T06:02:46.804Z,984.65
2018-07-21T06:03:46.886Z,984.65
2018-07-21T06:04:47.029Z,984.64
2018-07-21T06:05:47.186Z,984.67
2018-07-21T06:06:47.328Z,984.66
2018-07-21T06:07:47.498Z,984.70
2018-07-21T06:08:47.632Z,984.68
2018-07-21T06:09:47.770Z,984.71
2018-07-21T06:10:47.917Z,984.66
2018-07-21T06:11:48.055Z,984.70
2018-07-21T06:12:48.193Z,984.72
2018-07-21T06:13:48.356Z,984.75
2018-07-21T06:14:48.491Z,984.75
2018-07-21T06:15:48.633Z,984.78
2018-07-21T06:16:48.791Z,984.77
2018-07-21T06:17:48.930Z,984.81
2018-07-21T06:18:49.068Z,984.83
2018-07-21T06:19:49.210Z,984.85
2018-07-21T06:20:49.349Z,984.84
2018-07-21T06:21:49.492Z,984.88
2018-07-21T06:22:49.644Z,984.88
2018-07-21T06:23:49.799Z,984.88
2018-07-21T06:24:49.923Z,984.91
2018-07-21T06:25:50.071Z,984.91
2018-07-21T06:26:50.284Z,984.94
2018-07-21T06:27:50.303Z,984.94
2018-07-21T06:28:50.443Z,984.92
2018-07-21T06:29:50.572Z,984.93
2018-07-21T06:30:50.717Z,984.95
2018-07-21T06:31:50.871Z,984.96
2018-07-21T06:32:51.018Z,984.94
2018-07-21T06:33:51.163Z,984.90
2018-07-21T06:34:51.305Z,984.95
2018-07-21T06:35:51.440Z,984.98
2018-07-21T06:36:51.591Z,985.00
2018-07-21T06:37:51.756Z,984.98
2018-07-21T06:38:51.880Z,984.98
2018-07-21T06:39:52.028Z,985.00
2018-07-21T06:40:52.183Z,985.01
2018-07-21T06:41:52.321Z,985.00
2018-07-21T06:42:52.468Z,985.01
2018-07-21T06:43:52.656Z,985.01
2018-07-21T06:44:52.759Z,984.99
2018-07-21T06:45:52.900Z,985.03
2018-07-21T06:46:53.041Z,984.99
2018-07-21T06:47:53.179Z,984.98
2018-07-21T06:48:53.350Z,984.99
2018-07-21T06:49:53.517Z,984.97
2018-07-21T06:50:53.644Z,984.97
2018-07-21T06:51:53.795Z,984.98
2018-07-21T06:52:53.949Z,985.01
2018-07-21T06:53:54.086Z,985.02
2018-07-21T06:54:54.300Z,985.01
2018-07-21T06:55:54.333Z,985.02
2018-07-21T06:56:54.465Z,985.02
2018-07-21T06:57:54.607Z,984.98
2018-07-21T06:58:54.746Z,985.02
2018-07-21T06:59:54.907Z,985.05
2018-07-21T07:00:55.053Z,985.07
2018-07-21T07:01:55.190Z,985.06
2018-07-21T07:02:55.334Z,985.06
2018-07-21T07:03:55.484Z,985.09
2018-07-21T07:04:55.624Z,985.05
2018-07-21T07:05:55.769Z,985.08
2018-07-21T07:06:55.908Z,985.00
2018-07-21T07:07:56.051Z,985.00
2018-07-21T07:08:56.196Z,984.99
2018-07-21T07:09:56.337Z,984.97
2018-07-21T07:10:56.475Z,985.00
2018-07-21T07:11:56.617Z,985.01
2018-07-21T07:12:56.760Z,985.05
2018-07-21T07:13:56.911Z,985.05
2018-07-21T07:14:57.055Z,985.05
2018-07-21T07:15:57.194Z,985.02
2018-07-21T07:16:57.339Z,985.03
2018-07-21T07:17:57.481Z,985.04
2018-07-21T07:18:57.627Z,985.07
2018-07-21T07:19:57.767Z,985.01
2018-07-21T07:20:57.913Z,985.02
2018-07-21T07:21:58.052Z,985.02
2018-07-21T07:22:58.196Z,985.09
2018-07-21T07:23:58.343Z,985.04
2018-07-21T07:24:58.487Z,985.05
2018-07-21T07:25:58.625Z,985.09
2018-07-21T07:26:58.761Z,985.08
2018-07-21T07:27:58.901Z,985.09
2018-07-21T07:28:59.053Z,985.09
2018-07-21T07:29:59.192Z,985.08
2018-07-21T07:30:59.336Z,985.09
2018-07-21T07:31:59.468Z,985.10
2018-07-21T07:32:59.630Z,985.13
2018-07-21T07:33:59.770Z,985.10
2018-07-21T07:34:59.915Z,985.13
2018-07-21T07:36:00.055Z,985.13
2018-07-21T07:37:00.189Z,985.12
2018-07-21T07:38:00.337Z,985.13
2018-07-21T07:39:00.484Z,985.14
2018-07-21T07:40:00.629Z,985.13
2018-07-21T07:41:00.770Z,985.11
2018-07-21T07:42:00.925Z,985.13
2018-07-21T07:43:01.064Z,985.10
2018-07-21T07:44:01.205Z,985.12
2018-07-21T07:45:01.344Z,985.08
2018-07-21T07:46:01.486Z,985.14
2018-07-21T07:47:01.625Z,985.14
2018-07-21T07:48:01.769Z,985.14
2018-07-21T07:49:01.948Z,985.15
2018-07-21T07:50:02.081Z,985.15
2018-07-21T07:51:02.226Z,985.13
2018-07-21T07:52:02.366Z,985.14
2018-07-21T07:53:02.508Z,985.14
2018-07-21T07:54:02.656Z,985.13
2018-07-21T07:55:02.814Z,985.12
2018-07-21T07:56:02.950Z,985.10
2018-07-21T07:57:03.090Z,985.10
2018-07-21T07:58:03.258Z,985.14
2018-07-21T07:59:03.368Z,985.13
2018-07-21T08:00:03.518Z,985.13
2018-07-21T08:01:03.676Z,985.11
2018-07-21T08:02:03.815Z,985.09
2018-07-21T08:03:03.963Z,985.09
2018-07-21T08:04:04.110Z,985.10
2018-07-21T08:05:04.244Z,985.10
2018-07-21T08:06:04.381Z,985.11
2018-07-21T08:07:04.531Z,985.15
2018-07-21T08:08:04.673Z,985.13
2018-07-21T08:09:04.818Z,985.11
2018-07-21T08:10:04.973Z,985.14
2018-07-21T08:11:05.103Z,985.13
2018-07-21T08:12:05.243Z,985.11
2018-07-21T08:13:05.378Z,985.14
2018-07-21T08:14:05.581Z,985.15
2018-07-21T08:15:05.659Z,985.19
2018-07-21T08:16:05.822Z,985.18
2018-07-21T08:17:05.963Z,985.19
2018-07-21T08:18:06.180Z,985.21
2018-07-21T08:19:06.216Z,985.23
2018-07-21T08:20:06.338Z,985.25
2018-07-21T08:21:06.484Z,985.24
2018-07-21T08:22:06.621Z,985.24
2018-07-21T08:23:06.758Z,985.28
2018-07-21T08:24:06.899Z,985.25
2018-07-21T08:25:07.057Z,985.23
2018-07-21T08:26:07.199Z,985.24
2018-07-21T08:27:07.361Z,985.22
2018-07-21T08:28:07.467Z,985.17
2018-07-21T08:29:07.640Z,985.22
2018-07-21T08:30:07.749Z,985.22
2018-07-21T08:31:07.890Z,985.21
2018-07-21T08:32:08.031Z,985.21
2018-07-21T08:33:08.177Z,985.24
2018-07-21T08:34:08.318Z,985.24
2018-07-21T08:35:08.463Z,985.24
2018-07-21T08:36:08.606Z,985.22
2018-07-21T08:37:08.740Z,985.22
2018-07-21T08:38:08.884Z,985.25
2018-07-21T08:39:09.030Z,985.23
2018-07-21T08:40:09.180Z,985.20
2018-07-21T08:41:09.319Z,985.20
2018-07-21T08:42:09.464Z,985.22
2018-07-21T08:43:09.606Z,985.24
2018-07-21T08:44:09.750Z,985.28
2018-07-21T08:45:09.905Z,985.24
2018-07-21T08:46:10.067Z,985.26
2018-07-21T08:47:10.230Z,985.25
2018-07-21T08:48:10.356Z,985.25
2018-07-21T08:49:10.523Z,985.25
2018-07-21T08:50:10.676Z,985.24
2018-07-21T08:51:10.811Z,985.26
2018-07-21T08:52:10.958Z,985.27
2018-07-21T08:53:11.108Z,985.28
2018-07-21T08:54:11.256Z,985.29
2018-07-21T08:55:11.407Z,985.30
2018-07-21T08:56:11.549Z,985.30
2018-07-21T08:57:11.701Z,985.31
2018-07-21T08:58:11.849Z,985.31
2018-07-21T08:59:11.988Z,985.32
2018-07-21T09:00:12.142Z,985.34
2018-07-21T09:01:12.286Z,985.36
2018-07-21T09:02:12.436Z,985.36
2018-07-21T09:03:12.578Z,985.42
2018-07-21T09:04:12.717Z,985.39
2018-07-21T09:05:12.858Z,985.37
2018-07-21T09:06:13.011Z,985.38
2018-07-21T09:07:13.152Z,985.36
2018-07-21T09:08:13.299Z,985.36
2018-07-21T09:09:13.511Z,985.41
2018-07-21T09:10:13.609Z,985.39
2018-07-21T09:11:13.869Z,985.40
2018-07-21T09:12:13.918Z,985.40
2018-07-21T09:13:14.120Z,985.42
2018-07-21T09:14:14.276Z,985.39
2018-07-21T09:15:14.418Z,985.38
2018-07-21T09:16:14.556Z,985.45
2018-07-21T09:17:14.728Z,985.46
2018-07-21T09:18:14.857Z,985.47
2018-07-21T09:19:15.001Z,985.47
2018-07-21T09:20:15.150Z,985.45
2018-07-21T09:21:15.290Z,985.49
2018-07-21T09:22:15.430Z,985.50
2018-07-21T09:23:15.615Z,985.50
2018-07-21T09:24:15.728Z,985.51
2018-07-21T09:25:15.877Z,985.49
2018-07-21T09:26:16.044Z,985.55
2018-07-21T09:27:16.170Z,985.57
2018-07-21T09:28:16.396Z,985.52
2018-07-21T09:29:16.453Z,985.54
2018-07-21T09:30:16.604Z,985.58
2018-07-21T09:31:16.737Z,985.54
2018-07-21T09:32:16.900Z,985.53
2018-07-21T09:33:17.036Z,985.59
2018-07-21T09:34:17.292Z,985.55
2018-07-21T09:35:17.323Z,985.56
2018-07-21T09:36:17.483Z,985.56
2018-07-21T09:37:17.632Z,985.56
2018-07-21T09:38:17.779Z,985.63
2018-07-21T09:39:17.918Z,985.60
2018-07-21T09:40:18.134Z,985.64
2018-07-21T09:41:18.208Z,985.65
2018-07-21T09:42:18.353Z,985.68
2018-07-21T09:43:18.491Z,985.65
2018-07-21T09:44:18.635Z,985.69
2018-07-21T09:45:18.779Z,985.74
2018-07-21T09:46:18.922Z,985.74
2018-07-21T09:47:19.066Z,985.74
2018-07-21T09:48:19.208Z,985.80
2018-07-21T09:49:19.350Z,985.71
2018-07-21T09:50:19.496Z,985.78
2018-07-21T09:51:19.636Z,985.75
2018-07-21T09:52:19.781Z,985.75
2018-07-21T09:53:19.921Z,985.78
2018-07-21T09:54:20.064Z,985.80
2018-07-21T09:55:20.209Z,985.82
2018-07-21T09:56:20.354Z,985.76
2018-07-21T09:57:20.490Z,985.77
2018-07-21T09:58:20.637Z,985.82
2018-07-21T09:59:20.781Z,985.83
2018-07-21T10:00:20.924Z,985.81
2018-07-21T10:01:21.065Z,985.84
2018-07-21T10:02:21.213Z,985.87
2018-07-21T10:03:21.352Z,985.88
2018-07-21T10:04:21.508Z,985.92
2018-07-21T10:05:21.651Z,985.91
2018-07-21T10:06:21.795Z,985.91
2018-07-21T10:07:21.938Z,985.89
2018-07-21T10:08:22.088Z,985.96
2018-07-21T10:09:22.232Z,985.92
2018-07-21T10:10:22.382Z,985.98
2018-07-21T10:11:22.520Z,985.98
2018-07-21T10:12:22.664Z,985.97
2018-07-21T10:13:22.807Z,986.00
2018-07-21T10:14:22.950Z,986.07
2018-07-21T10:15:23.147Z,986.07
2018-07-21T10:16:23.243Z,986.05
2018-07-21T10:17:23.382Z,986.05
2018-07-21T10:18:23.526Z,986.05
2018-07-21T10:19:23.673Z,986.07
2018-07-21T10:20:23.819Z,986.09
2018-07-21T10:21:23.959Z,986.10
2018-07-21T10:22:24.104Z,986.06
2018-07-21T10:23:24.257Z,986.07
2018-07-21T10:24:24.398Z,986.08
2018-07-21T10:25:24.545Z,986.14
2018-07-21T10:26:24.704Z,986.12
2018-07-21T10:27:24.845Z,986.11
2018-07-21T10:28:25.029Z,986.13
2018-07-21T10:29:25.139Z,986.14
2018-07-21T10:30:25.276Z,986.18
2018-07-21T10:31:25.432Z,986.19
2018-07-21T10:32:25.570Z,986.16
2018-07-21T10:33:25.788Z,986.19
2018-07-21T10:34:25.878Z,986.18
2018-07-21T10:35:26.016Z,986.21
2018-07-21T10:36:26.162Z,986.19
2018-07-21T10:37:26.316Z,986.16
2018-07-21T10:38:26.458Z,986.16
2018-07-21T10:39:26.599Z,986.22
2018-07-21T10:40:26.795Z,986.16
2018-07-21T10:41:26.894Z,986.18
2018-07-21T10:42:27.042Z,986.17
2018-07-21T10:43:27.200Z,986.15
2018-07-21T10:44:27.352Z,986.17
2018-07-21T10:45:27.479Z,986.16
2018-07-21T10:46:27.641Z,986.12
2018-07-21T10:47:27.782Z,986.15
2018-07-21T10:48:27.996Z,986.08
2018-07-21T10:49:28.033Z,986.12
2018-07-21T10:50:28.200Z,986.09
2018-07-21T10:51:28.332Z,986.06
2018-07-21T10:52:28.487Z,986.06
2018-07-21T10:53:28.611Z,986.04
2018-07-21T10:54:28.750Z,986.05
2018-07-21T10:55:28.940Z,986.06
2018-07-21T10:56:29.076Z,986.04
2018-07-21T10:57:29.221Z,986.06
2018-07-21T10:58:29.382Z,986.00
2018-07-21T10:59:29.514Z,986.02
2018-07-21T11:00:29.659Z,985.98
2018-07-21T11:01:29.815Z,986.00
2018-07-21T11:02:29.966Z,985.99
2018-07-21T11:03:30.109Z,986.00
2018-07-21T11:04:30.271Z,986.00
2018-07-21T11:05:30.410Z,985.97
2018-07-21T11:06:30.552Z,986.00
2018-07-21T11:07:30.706Z,985.99
2018-07-21T11:08:30.851Z,985.97
2018-07-21T11:09:30.994Z,985.97
2018-07-21T11:10:31.139Z,985.93
2018-07-21T11:11:31.299Z,985.95
2018-07-21T11:12:31.417Z,985.93
2018-07-21T11:13:31.571Z,985.97
2018-07-21T11:14:31.733Z,985.98
2018-07-21T11:15:31.940Z,986.00
2018-07-21T11:16:32.022Z,986.00
2018-07-21T11:17:32.221Z,986.01
2018-07-21T11:18:33.160Z,986.01
2018-07-21T11:19:32.493Z,986.02
2018-07-21T11:20:32.633Z,986.06
2018-07-21T11:21:32.777Z,986.05
2018-07-21T11:22:32.927Z,986.07
2018-07-21T11:23:33.068Z,986.06
2018-07-21T11:24:33.212Z,986.07
2018-07-21T11:25:33.356Z,986.08
2018-07-21T11:26:33.501Z,986.08
2018-07-21T11:27:33.645Z,986.05
2018-07-21T11:28:33.788Z,986.13
2018-07-21T11:29:33.942Z,986.09
2018-07-21T11:30:34.081Z,986.06
2018-07-21T11:31:34.229Z,986.06
2018-07-21T11:32:34.370Z,986.08
2018-07-21T11:33:34.516Z,986.08
2018-07-21T11:34:34.660Z,986.10
2018-07-21T11:35:34.878Z,986.10
2018-07-21T11:36:34.985Z,986.08
2018-07-21T11:37:35.082Z,986.09
2018-07-21T11:38:35.227Z,986.10
2018-07-21T11:39:35.369Z,986.12
2018-07-21T11:40:35.508Z,986.15
2018-07-21T11:41:35.678Z,986.15
2018-07-21T11:42:35.830Z,986.17
2018-07-21T11:43:35.971Z,986.17
2018-07-21T11:44:36.231Z,986.21
2018-07-21T11:45:36.329Z,986.19
2018-07-21T11:46:36.481Z,986.17
2018-07-21T11:47:36.625Z,986.18
2018-07-21T11:48:36.768Z,986.19
2018-07-21T11:49:36.915Z,986.16
2018-07-21T11:50:37.292Z,986.18
2018-07-21T11:51:37.210Z,986.20
2018-07-21T11:52:37.350Z,986.21
2018-07-21T11:53:37.505Z,986.18
2018-07-21T11:54:37.657Z,986.21
2018-07-21T11:55:37.789Z,986.21
2018-07-21T11:56:37.963Z,986.19
2018-07-21T11:57:38.204Z,986.20
2018-07-21T11:58:38.233Z,986.18
2018-07-21T11:59:38.401Z,986.25
2018-07-21T12:00:38.536Z,986.22
2018-07-21T12:01:38.680Z,986.23
2018-07-21T12:02:38.847Z,986.24
2018-07-21T12:03:38.979Z,986.24
2018-07-21T12:04:39.119Z,986.18
2018-07-21T12:05:39.342Z,986.21
2018-07-21T12:06:39.400Z,986.17
2018-07-21T12:07:39.606Z,986.19
2018-07-21T12:08:39.670Z,986.20
2018-07-21T12:09:39.821Z,986.22
2018-07-21T12:10:39.968Z,986.20
2018-07-21T12:11:40.672Z,986.20
2018-07-21T12:12:40.228Z,986.26
2018-07-21T12:13:40.423Z,986.23
2018-07-21T12:14:40.505Z,986.25
2018-07-21T12:15:40.647Z,986.23
2018-07-21T12:16:40.787Z,986.24
2018-07-21T12:17:40.933Z,986.22
2018-07-21T12:18:41.183Z,986.28
2018-07-21T12:19:41.216Z,986.23
2018-07-21T12:20:41.356Z,986.28
2018-07-21T12:21:41.510Z,986.24
2018-07-21T12:22:41.648Z,986.22
2018-07-21T12:23:41.790Z,986.25
2018-07-21T12:24:41.940Z,986.29
2018-07-21T12:25:42.075Z,986.31
2018-07-21T12:26:42.217Z,986.29
2018-07-21T12:27:42.362Z,986.30
2018-07-21T12:28:42.502Z,986.27
2018-07-21T12:29:42.648Z,986.26
2018-07-21T12:30:42.802Z,986.25
2018-07-21T12:31:42.946Z,986.26